Data for 12/24/2014

Time Sea-Level Adjusted Pressure Absolute Pressure Temperature Relative Humidity Dew Point   
(mb) (inHg) (mb) (inHg) (C) (F) (%) (C) (F)
00:05 1018 30.06 847 25.01 -1.9 28.5 64 -7.8 18
00:10 1018 30.06 847 25.01 -1.7 29 64 -7.5 18.5
00:15 1018 30.06 847 25.01 -1.4 29.5 63 -7.6 18.3
00:20 1018 30.06 847 25.01 -1 30.2 62 -7.5 18.6
00:25 1018 30.06 847 25.01 -1 30.2 63 -7.2 19
00:30 1017 30.03 847 25.01 -1.4 29.5 63 -7.5 18.4
00:35 1017 30.03 847 25.01 -1.6 29.2 66 -7.2 19
00:40 1017 30.03 846 24.98 -1.6 29.1 66 -7.2 19.1
00:45 1017 30.03 847 25.01 -1.5 29.3 63 -7.6 18.3
00:50 1017 30.03 846 24.98 -1.2 29.9 62 -7.6 18.3
00:55 1017 30.03 846 24.98 -1.1 30.1 64 -7.1 19.2
01:00 1017 30.03 846 24.98 -1.5 29.2 64 -7.5 18.5
01:05 1017 30.03 846 24.98 -1.3 29.6 63 -7.5 18.5
01:10 1017 30.03 846 24.98 -1.1 30 61 -7.8 18
01:15 1017 30.03 846 24.98 -0.8 30.6 59 -7.7 18.1
01:20 1017 30.03 846 24.98 -0.6 30.9 60 -7.3 18.8
01:25 1016 30 845 24.95 -0.6 30.9 57 -8 17.6
01:30 1016 30 845 24.95 -0.6 31 62 -7 19.5
01:35 1016 30 845 24.95 -0.7 30.7 61 -7.4 18.7
01:40 1016 30 845 24.95 -0.9 30.3 65 -6.7 19.9
01:45 1016 30 845 24.95 -1.2 29.9 63 -7.3 18.8
01:50 1016 30 845 24.95 -1.1 30 65 -6.9 19.6
01:55 1016 30 845 24.95 -1.3 29.7 64 -7.2 19
02:00 1016 30 845 24.95 -1.1 30 63 -7.3 18.8
02:05 1015 29.97 845 24.95 -1 30.3 64 -6.9 19.6
02:10 1015 29.97 845 24.95 -0.9 30.4 62 -7.4 18.8
02:15 1015 29.97 844 24.92 -0.5 31 62 -6.9 19.5
02:20 1015 29.97 844 24.92 -0.5 31.1 63 -6.6 20.1
02:25 1015 29.97 844 24.92 -0.3 31.4 64 -6.3 20.6
02:30 1015 29.97 844 24.92 -0.3 31.4 63 -6.6 20.1
02:35 1014 29.94 844 24.92 -0.4 31.3 64 -6.3 20.7
02:40 1014 29.94 844 24.92 -0.5 31.2 65 -6.3 20.6
02:45 1014 29.94 844 24.92 -0.4 31.3 63 -6.5 20.2
02:50 1014 29.94 843 24.89 -0.2 31.6 63 -6.4 20.4
02:55 1014 29.94 843 24.89 -0.1 31.9 63 -6.4 20.5
03:00 1014 29.94 843 24.89 0 32.1 62 -6.3 20.7
03:05 1014 29.94 843 24.89 0.2 32.3 62 -6.2 20.8
03:10 1014 29.94 843 24.89 0.2 32.3 62 -6.2 20.8
03:15 1014 29.94 843 24.89 0.3 32.5 62 -6.1 21
03:20 1014 29.94 843 24.89 0.4 32.7 62 -6.1 21
03:25 1014 29.94 843 24.89 0.6 33.2 61 -6.1 21
03:30 1014 29.94 843 24.89 0.8 33.4 60 -6 21.2
03:35 1014 29.94 843 24.89 0.9 33.6 60 -6 21.1
03:40 1014 29.94 843 24.89 1 33.8 59 -6.1 21.1
03:45 1014 29.94 843 24.89 1.1 34 60 -5.9 21.4
03:50 1014 29.94 843 24.89 1 33.9 60 -5.9 21.4
03:55 1014 29.94 843 24.89 0.8 33.4 64 -5.2 22.6
04:00 1014 29.94 843 24.89 0.2 32.4 67 -5.2 22.6
04:05 1014 29.94 843 24.89 0.1 32.2 66 -5.5 22
04:10 1013 29.91 843 24.89 0.1 32.1 64 -5.9 21.4
04:15 1013 29.91 843 24.89 -0.2 31.7 66 -5.8 21.6
04:20 1013 29.91 843 24.89 -0.3 31.4 67 -5.7 21.8
04:25 1013 29.91 842 24.86 -0.4 31.2 68 -5.6 21.9
04:30 1013 29.91 842 24.86 -0.4 31.2 68 -5.7 21.8
04:35 1013 29.91 842 24.86 -0.3 31.5 65 -6.1 21
04:40 1013 29.91 842 24.86 0.2 32.3 64 -5.8 21.5
04:45 1013 29.91 842 24.86 0.3 32.6 63 -5.9 21.4
04:50 1012 29.88 842 24.86 0.4 32.8 63 -5.8 21.6
04:55 1012 29.88 841 24.83 0.1 32.2 64 -5.8 21.5
05:00 1012 29.88 841 24.83 -0.1 31.8 65 -6 21.2
05:05 1012 29.88 841 24.83 -0.2 31.7 65 -5.9 21.3
05:10 1012 29.88 841 24.83 -0.7 30.8 68 -5.9 21.4
05:15 1012 29.88 841 24.83 -1 30.3 68 -6.2 20.8
05:20 1012 29.88 841 24.83 -0.4 31.4 64 -6.3 20.6
05:25 1012 29.88 841 24.83 0.3 32.6 62 -6.2 20.8
05:30 1012 29.88 841 24.83 0.8 33.4 60 -6 21.2
05:35 1012 29.88 841 24.83 1.1 34 59 -6 21.3
05:40 1012 29.88 841 24.83 1.3 34.3 59 -5.9 21.3
05:45 1011 29.85 841 24.83 1.4 34.5 58 -6 21.2
05:50 1011 29.85 840 24.81 1.4 34.6 58 -5.9 21.3
05:55 1011 29.85 840 24.81 1.6 34.9 56 -6.2 20.8
06:00 1011 29.85 840 24.81 2 35.6 54 -6.3 20.6
06:05 1011 29.85 840 24.81 2.3 36.1 54 -6.1 21
06:10 1011 29.85 840 24.81 2.1 35.8 55 -5.9 21.3
06:15 1011 29.85 840 24.81 1.8 35.2 56 -6 21.3
06:20 1011 29.85 840 24.81 1.8 35.3 55 -6.3 20.6
06:25 1011 29.85 840 24.81 2 35.5 56 -5.9 21.4
06:30 1011 29.85 840 24.81 1.7 35 56 -6.1 21
06:35 1011 29.85 840 24.81 1.8 35.2 53 -6.8 19.8
06:40 1011 29.85 840 24.81 2.4 36.4 49 -7.2 19
06:45 1010 29.83 840 24.81 2.9 37.2 49 -6.7 20
06:50 1010 29.83 840 24.81 2.8 37.1 50 -6.5 20.3
06:55 1011 29.85 840 24.81 2.6 36.6 51 -6.5 20.4
07:00 1011 29.85 840 24.81 2.2 36 54 -6.1 21
07:05 1011 29.85 840 24.81 1.6 34.8 57 -6.1 21
07:10 1010 29.83 840 24.81 1.3 34.3 55 -6.7 20
07:15 1010 29.83 839 24.78 1.9 35.4 53 -6.7 19.9
07:20 1010 29.83 839 24.78 1.9 35.4 53 -6.7 19.9
07:25 1010 29.83 839 24.78 1.8 35.3 55 -6.3 20.7
07:30 1010 29.83 839 24.78 1.3 34.3 57 -6.3 20.7
07:35 1010 29.83 839 24.78 1.1 34.1 58 -6.2 20.8
07:40 1010 29.83 839 24.78 1 33.8 57 -6.6 20.2
07:45 1010 29.83 839 24.78 1.2 34.2 56 -6.6 20.1
07:50 1009 29.8 839 24.78 1.3 34.3 55 -6.7 19.9
07:55 1009 29.8 839 24.78 1.3 34.3 54 -7 19.4
08:00 1009 29.8 839 24.78 1.5 34.7 55 -6.6 20.2
08:05 1009 29.8 838 24.75 1.4 34.6 54 -6.9 19.6
08:10 1009 29.8 838 24.75 1.6 34.9 54 -6.6 20.1
08:15 1009 29.8 838 24.75 1.3 34.4 56 -6.5 20.2
08:20 1009 29.8 838 24.75 1.2 34.2 56 -6.7 19.9
08:25 1009 29.8 838 24.75 1.2 34.2 56 -6.6 20.1
08:30 1009 29.8 838 24.75 1 33.8 56 -6.7 19.9
08:35 1009 29.8 838 24.75 0.9 33.6 56 -7 19.4
08:40 1009 29.8 838 24.75 1.1 34 56 -6.8 19.8
08:45 1009 29.8 838 24.75 1 33.7 55 -7 19.3
08:50 1009 29.8 838 24.75 1.4 34.6 55 -6.7 20
08:55 1009 29.8 838 24.75 1.2 34.2 55 -6.8 19.7
09:00 1008 29.77 838 24.75 1.1 33.9 57 -6.6 20.2
09:05 1009 29.8 838 24.75 0.9 33.7 56 -6.9 19.5
09:10 1009 29.8 838 24.75 1.1 34 55 -6.9 19.6
09:15 1008 29.77 838 24.75 0.9 33.6 59 -6.3 20.6
09:20 1008 29.77 838 24.75 -0 32 61 -6.6 20.1
09:25 1008 29.77 838 24.75 -0.2 31.6 60 -7 19.4
09:30 1008 29.77 838 24.75 -0.2 31.7 60 -7.1 19.2
09:35 1008 29.77 837 24.72 0 32.1 60 -6.9 19.6
09:40 1008 29.77 837 24.72 -0 32 60 -6.9 19.5
09:45 1008 29.77 837 24.72 0.4 32.7 57 -7.2 19.1
09:50 1008 29.77 837 24.72 0.9 33.5 55 -7.2 19.1
09:55 1008 29.77 837 24.72 1.1 34 55 -6.8 19.7
10:00 1008 29.77 837 24.72 0.7 33.3 58 -6.7 20
10:05 1008 29.77 837 24.72 0.4 32.8 57 -7.1 19.2
10:10 1008 29.77 837 24.72 0.3 32.5 59 -6.9 19.6
10:15 1008 29.77 837 24.72 0.2 32.4 57 -7.3 18.9
10:20 1008 29.77 837 24.72 0.5 32.9 57 -7 19.4
10:25 1008 29.77 837 24.72 0.5 32.8 56 -7.4 18.7
10:30 1008 29.77 837 24.72 1.2 34.1 56 -6.8 19.8
10:35 1008 29.77 837 24.72 0.8 33.5 56 -6.9 19.5
10:40 1008 29.77 837 24.72 0.7 33.3 56 -7.1 19.2
10:45 1008 29.77 837 24.72 0.7 33.3 56 -7 19.3
10:50 1007 29.74 837 24.72 0.7 33.3 56 -7.1 19.3
10:55 1007 29.74 837 24.72 0.7 33.3 55 -7.2 19
11:00 1007 29.74 837 24.72 0.9 33.7 55 -7.2 19
11:05 1007 29.74 836 24.69 1.1 34 55 -7 19.4
11:10 1007 29.74 837 24.72 1.3 34.3 53 -7.2 19
11:15 1007 29.74 836 24.69 1.4 34.5 53 -7.2 19.1
11:20 1007 29.74 836 24.69 1.5 34.7 53 -7.1 19.2
11:25 1007 29.74 836 24.69 1.6 34.9 52 -7.1 19.1
11:30 1007 29.74 836 24.69 1.8 35.2 52 -7.1 19.2
11:35 1007 29.74 836 24.69 1.9 35.4 52 -7 19.4
11:40 1007 29.74 836 24.69 2.1 35.7 51 -7 19.5
11:45 1007 29.74 836 24.69 2.2 36 50 -7.3 18.9
11:50 1007 29.74 836 24.69 2.4 36.3 52 -6.6 20.1
11:55 1007 29.74 836 24.69 2.4 36.4 49 -7.1 19.2
12:00 1007 29.74 836 24.69 2.9 37.2 49 -6.9 19.6
12:05 1007 29.74 836 24.69 3.2 37.7 49 -6.6 20.1
12:10 1006 29.71 836 24.69 2.8 37.1 52 -6.2 20.9
12:15 1006 29.71 835 24.66 2.8 37.1 51 -6.2 20.8
12:20 1006 29.71 835 24.66 2.8 37.1 51 -6.3 20.7
12:25 1006 29.71 835 24.66 2.6 36.7 50 -6.6 20
12:30 1006 29.71 835 24.66 2.7 36.8 50 -6.6 20.1
12:35 1006 29.71 835 24.66 2.8 37 50 -6.5 20.2
12:40 1006 29.71 835 24.66 2.6 36.8 51 -6.5 20.2
12:45 1005 29.68 835 24.66 2.6 36.7 51 -6.5 20.2
12:50 1005 29.68 834 24.63 2.6 36.6 51 -6.6 20.1
12:55 1005 29.68 834 24.63 2.4 36.4 52 -6.5 20.3
13:00 1005 29.68 834 24.63 2.3 36.2 52 -6.5 20.3
13:05 1005 29.68 834 24.63 2.3 36.1 51 -6.8 19.8
13:10 1005 29.68 834 24.63 2.3 36.1 52 -6.5 20.3
13:15 1005 29.68 834 24.63 2.4 36.3 51 -6.6 20.1
13:20 1004 29.65 834 24.63 2.6 36.7 52 -6.3 20.7
13:25 1004 29.65 834 24.63 2.6 36.6 53 -6.1 21
13:30 1004 29.65 833 24.6 2.5 36.5 52 -6.4 20.5
13:35 1004 29.65 833 24.6 2.6 36.7 51 -6.5 20.2
13:40 1004 29.65 833 24.6 2.8 37.1 51 -6.2 20.8
13:45 1004 29.65 833 24.6 2.9 37.2 50 -6.4 20.4
13:50 1004 29.65 833 24.6 3 37.3 49 -6.8 19.7
13:55 1003 29.62 833 24.6 3.1 37.5 47 -7.2 19.1
14:00 1003 29.62 833 24.6 3.2 37.8 49 -6.5 20.3
14:05 1003 29.62 833 24.6 3.2 37.8 49 -6.4 20.4
14:10 1003 29.62 832 24.57 3.4 38.1 46 -7.1 19.2
14:15 1003 29.62 832 24.57 3.5 38.4 45 -7.3 18.9
14:20 1003 29.62 832 24.57 3.8 38.9 43 -7.6 18.4
14:25 1003 29.62 832 24.57 4.4 39.9 43 -7.2 19
14:30 1003 29.62 832 24.57 4.5 40.1 41 -7.6 18.4
14:35 1003 29.62 832 24.57 4.6 40.2 42 -7.4 18.7
14:40 1003 29.62 832 24.57 4.5 40.1 42 -7.3 18.9
14:45 1002 29.59 832 24.57 4.4 39.9 42 -7.3 18.9
14:50 1002 29.59 832 24.57 4.5 40.1 42 -7.3 18.9
14:55 1002 29.59 831 24.54 4.5 40.1 43 -7 19.4
15:00 1002 29.59 831 24.54 4.5 40.1 42 -7.4 18.8
15:05 1002 29.59 831 24.54 4.5 40.1 42 -7.3 18.8
15:10 1002 29.59 831 24.54 4.4 39.9 42 -7.3 18.8
15:15 1002 29.59 831 24.54 4.4 39.9 41 -7.8 18
15:20 1002 29.59 831 24.54 4.3 39.8 43 -7.2 19
15:25 1002 29.59 831 24.54 4.4 39.9 42 -7.3 18.9
15:30 1002 29.59 831 24.54 4.6 40.3 41 -7.5 18.5
15:35 1002 29.59 831 24.54 4.7 40.5 40 -7.7 18.1
15:40 1002 29.59 831 24.54 4.8 40.7 41 -7.4 18.7
15:45 1001 29.56 831 24.54 4.8 40.6 42 -7 19.4
15:50 1001 29.56 831 24.54 4.6 40.3 42 -7.2 19.1
15:55 1001 29.56 831 24.54 4.5 40.1 42 -7.2 19
16:00 1001 29.56 831 24.54 4.6 40.3 42 -7.1 19.2
16:05 1001 29.56 831 24.54 4.7 40.4 41 -7.3 18.8
16:10 1001 29.56 830 24.51 4.8 40.6 41 -7.4 18.7
16:15 1001 29.56 830 24.51 4.7 40.5 41 -7.5 18.5
16:20 1001 29.56 830 24.51 4.7 40.5 41 -7.5 18.6
16:25 1001 29.56 830 24.51 4.7 40.5 41 -7.5 18.5
16:30 1001 29.56 830 24.51 4.8 40.6 41 -7.5 18.6
16:35 1001 29.56 830 24.51 4.7 40.5 41 -7.5 18.6
16:40 1001 29.56 830 24.51 4.7 40.4 41 -7.3 18.8
16:45 1001 29.56 830 24.51 4.7 40.4 42 -7.1 19.3
16:50 1001 29.56 830 24.51 4.4 39.9 46 -6.1 21
16:55 1001 29.56 830 24.51 3.8 38.8 49 -6 21.2
17:00 1001 29.56 830 24.51 3.5 38.2 50 -6 21.1
17:05 1001 29.56 830 24.51 3.4 38.1 50 -6.2 20.8
17:10 1001 29.56 830 24.51 3.3 38 50 -6 21.1
17:15 1001 29.56 830 24.51 3.1 37.6 50 -6.4 20.4
17:20 1001 29.56 830 24.51 3 37.3 50 -6.5 20.4
17:25 1001 29.56 830 24.51 2.8 37 51 -6.3 20.6
17:30 1001 29.56 830 24.51 2.5 36.6 53 -6.2 20.8
17:35 1001 29.56 830 24.51 2.4 36.3 54 -6.1 21
17:40 1001 29.56 830 24.51 2.3 36.1 53 -6.2 20.8
17:45 1001 29.56 830 24.51 2.2 35.9 54 -6.1 21
17:50 1001 29.56 830 24.51 2.1 35.7 55 -6.1 21
17:55 1001 29.56 830 24.51 2 35.6 55 -6.2 20.8
18:00 1001 29.56 830 24.51 1.8 35.3 56 -6 21.2
18:05 1001 29.56 830 24.51 1.8 35.2 57 -5.8 21.5
18:10 1000 29.53 830 24.51 1.7 35.1 58 -5.7 21.7
18:15 1000 29.53 830 24.51 1.6 34.9 58 -5.7 21.7
18:20 1000 29.53 830 24.51 1.6 34.8 59 -5.7 21.8
18:25 1000 29.53 830 24.51 1.5 34.7 59 -5.7 21.7
18:30 1000 29.53 830 24.51 1.4 34.6 60 -5.6 21.9
18:35 1000 29.53 830 24.51 1.4 34.5 59 -5.8 21.5
18:40 1000 29.53 830 24.51 1.4 34.6 60 -5.5 22
18:45 1000 29.53 830 24.51 1.4 34.5 65 -4.5 23.8
18:50 1000 29.53 830 24.51 1.2 34.1 68 -4 24.8
18:55 1000 29.53 830 24.51 1 33.7 71 -3.7 25.3
19:00 1000 29.53 830 24.51 0.8 33.4 75 -3.2 26.2
19:05 1001 29.56 830 24.51 0.5 32.8 79 -2.8 27
19:10 1000 29.53 830 24.51 0.2 32.3 83 -2.4 27.7
19:15 1000 29.53 830 24.51 -0.2 31.6 87 -2 28.3
19:20 1000 29.53 830 24.51 -0.4 31.2 90 -1.8 28.7
19:25 1000 29.53 830 24.51 -0.6 30.9 92 -1.8 28.8
19:30 1000 29.53 830 24.51 -0.7 30.7 93 -1.8 28.8
19:35 1000 29.53 830 24.51 -0.8 30.7 93 -1.7 28.9
19:40 1000 29.53 830 24.51 -0.8 30.6 94 -1.7 29
19:45 1000 29.53 830 24.51 -0.8 30.6 94 -1.6 29.1
19:50 1000 29.53 830 24.51 -0.8 30.6 94 -1.6 29.1
19:55 1000 29.53 830 24.51 -0.8 30.5 94 -1.7 29
20:00 1000 29.53 830 24.51 -0.9 30.5 94 -1.7 29
20:05 1000 29.53 830 24.51 -0.9 30.4 94 -1.7 29
20:10 1000 29.53 829 24.48 -0.9 30.4 95 -1.6 29.1
20:15 1000 29.53 829 24.48 -0.9 30.4 95 -1.6 29.1
20:20 1000 29.53 829 24.48 -0.9 30.4 95 -1.6 29
20:25 1000 29.53 829 24.48 -0.9 30.3 95 -1.7 29
20:30 1000 29.53 829 24.48 -1 30.2 95 -1.7 29
20:35 1000 29.53 829 24.48 -1 30.2 95 -1.7 29
20:40 1000 29.53 829 24.48 -1 30.2 95 -1.7 28.9
20:45 1000 29.53 829 24.48 -1.1 30 95 -1.8 28.7
20:50 1000 29.53 829 24.48 -1.2 29.8 95 -1.9 28.5
20:55 1000 29.53 829 24.48 -1.3 29.7 95 -2 28.4
21:00 1000 29.53 829 24.48 -1.3 29.6 95 -2.1 28.3
21:05 1000 29.53 829 24.48 -1.4 29.5 95 -2.1 28.2
21:10 1000 29.53 829 24.48 -1.4 29.5 95 -2.1 28.2
21:15 1000 29.53 829 24.48 -1.4 29.4 95 -2.2 28.1
21:20 1000 29.53 829 24.48 -1.4 29.4 95 -2.2 28.1
21:25 1000 29.53 829 24.48 -1.4 29.4 95 -2.2 28.1
21:30 1000 29.53 829 24.48 -1.5 29.3 95 -2.2 28.1
21:35 1000 29.53 829 24.48 -1.5 29.3 95 -2.2 28
21:40 1000 29.53 829 24.48 -1.5 29.2 95 -2.3 27.9
21:45 1000 29.53 829 24.48 -1.6 29.2 95 -2.3 27.9
21:50 1000 29.53 829 24.48 -1.6 29.1 95 -2.3 27.9
21:55 1000 29.53 829 24.48 -1.6 29.1 95 -2.3 27.9
22:00 1000 29.53 829 24.48 -1.6 29.1 95 -2.3 27.8
22:05 1000 29.53 829 24.48 -1.7 29 95 -2.4 27.7
22:10 1000 29.53 829 24.48 -1.7 29 95 -2.3 27.8
22:15 1000 29.53 829 24.48 -1.7 29 95 -2.4 27.7
22:20 1000 29.53 829 24.48 -1.7 29 95 -2.4 27.8
22:25 1000 29.53 829 24.48 -1.7 28.9 95 -2.4 27.7
22:30 1000 29.53 829 24.48 -1.7 28.9 95 -2.4 27.7
22:35 1000 29.53 830 24.51 -1.7 28.9 95 -2.4 27.7
22:40 1000 29.53 830 24.51 -1.7 29 95 -2.3 27.8
22:45 1000 29.53 830 24.51 -1.7 29 95 -2.3 27.8
22:50 1000 29.53 830 24.51 -1.6 29.1 96 -2.3 27.9
22:55 1001 29.56 830 24.51 -1.6 29.2 96 -2.2 28
23:00 1001 29.56 830 24.51 -1.5 29.2 96 -2.2 28.1
23:05 1001 29.56 830 24.51 -1.5 29.3 96 -2.1 28.1
23:10 1001 29.56 830 24.51 -1.5 29.3 96 -2.2 28.1
23:15 1001 29.56 830 24.51 -1.6 29.2 96 -2.2 28.1
23:20 1001 29.56 830 24.51 -1.6 29.2 96 -2.2 28.1
23:25 1001 29.56 830 24.51 -1.6 29.1 95 -2.2 28
23:30 1001 29.56 830 24.51 -1.6 29 95 -2.3 27.9
23:35 1001 29.56 830 24.51 -1.6 29.1 96 -2.2 28
23:40 1001 29.56 830 24.51 -1.6 29.1 96 -2.2 28
23:45 1001 29.56 830 24.51 -1.6 29.2 96 -2.2 28.1
23:50 1001 29.56 830 24.51 -1.6 29.2 96 -2.1 28.1
23:55 1001 29.56 830 24.51 -1.5 29.3 96 -2.1 28.2
24:00 1001 29.56 830 24.51 -1.5 29.3 96 -2.1 28.2